Time;durP1;ratioP1;P1;durP2;ratioP2;P2;SDS_P1;SDS_P2;PMS_P1;PMS_P2;Temp;Humidity;BMP_temperature;BMP_pressure;BME280_temperature;BME280_humidity;BME280_pressure;Samples;Min_cycle;Max_cycle;Signal;HPM_P1;HPM_P2
2022/04/11 00:01:53;;;;;;;4.00;3.28;;;10.90;99.90;;;;;;5059059;28;20679;-83
2022/04/11 00:04:19;;;;;;;3.33;3.03;;;11.00;99.90;;;;;;5057537;28;20210;-86
2022/04/11 00:06:44;;;;;;;7.53;4.18;;;10.90;99.90;;;;;;5058752;28;20230;-83
2022/04/11 00:09:10;;;;;;;7.63;3.88;;;10.80;99.90;;;;;;5058037;28;20340;-84
2022/04/11 00:11:35;;;;;;;11.23;4.82;;;10.80;99.90;;;;;;5058198;28;20163;-80
2022/04/11 00:14:04;;;;;;;6.78;4.03;;;10.60;99.90;;;;;;5059748;28;20199;-84
2022/04/11 00:16:30;;;;;;;6.03;3.60;;;10.70;99.90;;;;;;5065474;28;20167;-77
2022/04/11 00:18:56;;;;;;;4.65;3.92;;;10.50;99.90;;;;;;5063279;28;20711;-82
2022/04/11 00:21:21;;;;;;;5.45;3.90;;;10.40;99.90;;;;;;5057764;28;20199;-81
2022/04/11 00:23:47;;;;;;;7.10;4.68;;;10.30;99.90;;;;;;5057671;28;20207;-79
2022/04/11 00:26:13;;;;;;;10.65;4.18;;;10.40;99.90;;;;;;5056777;28;20195;-79
2022/04/11 00:28:38;;;;;;;6.38;3.90;;;10.60;99.90;;;;;;5057034;28;20515;-82
2022/04/11 00:31:04;;;;;;;9.95;4.95;;;10.70;99.90;;;;;;5056070;28;20163;-81
2022/04/11 00:33:29;;;;;;;14.07;3.75;;;10.80;99.90;;;;;;5057832;28;20171;-81
2022/04/11 00:35:55;;;;;;;3.97;3.00;;;10.70;99.90;;;;;;5057076;28;20692;-82
2022/04/11 00:38:21;;;;;;;5.80;3.33;;;10.70;99.90;;;;;;5056533;28;20167;-82
2022/04/11 00:40:46;;;;;;;6.82;3.38;;;10.60;99.90;;;;;;5055399;28;20191;-80
2022/04/11 00:43:34;;;;;;;10.55;3.33;;;10.50;99.90;;;;;;5056348;28;20191;-82
2022/04/11 00:46:01;;;;;;;6.13;3.55;;;10.60;99.90;;;;;;5058099;28;20179;-84
2022/04/11 00:48:27;;;;;;;6.10;3.33;;;10.70;99.90;;;;;;5057045;28;20517;-83
2022/04/11 00:51:00;;;;;;;10.85;3.25;;;10.50;99.90;;;;;;5057598;28;20666;-85
2022/04/11 00:53:28;;;;;;;8.88;3.95;;;10.40;99.90;;;;;;5057161;28;20175;-82
2022/04/11 00:55:56;;;;;;;5.88;2.97;;;10.40;99.90;;;;;;5055742;28;20190;-82
2022/04/11 00:58:22;;;;;;;4.50;3.55;;;10.40;99.90;;;;;;5054887;28;20181;-80
2022/04/11 01:00:48;;;;;;;7.43;3.50;;;10.40;99.90;;;;;;5054936;28;20188;-79
2022/04/11 01:03:13;;;;;;;8.45;3.83;;;10.30;99.90;;;;;;5053721;28;20612;-79
2022/04/11 01:05:40;;;;;;;3.85;3.47;;;10.30;99.90;;;;;;5057618;28;20225;-80
2022/04/11 01:08:11;;;;;;;8.30;3.00;;;10.30;99.90;;;;;;5061781;28;20171;-84
2022/04/11 01:10:38;;;;;;;9.93;3.30;;;10.30;99.90;;;;;;5061369;28;20270;-83
2022/04/11 01:13:04;;;;;;;8.02;3.35;;;10.30;99.90;;;;;;5063017;28;20190;-79
2022/04/11 01:15:30;;;;;;;7.85;3.42;;;10.30;99.90;;;;;;5061239;28;20166;-81
2022/04/11 01:17:55;;;;;;;3.03;2.72;;;10.30;99.90;;;;;;5063777;28;20167;-80
2022/04/11 01:20:22;;;;;;;4.32;2.92;;;10.10;99.90;;;;;;5062698;28;20183;-79
2022/04/11 01:22:49;;;;;;;6.40;2.97;;;10.10;99.90;;;;;;5060758;28;20191;-81
2022/04/11 01:25:18;;;;;;;5.20;3.20;;;10.10;99.90;;;;;;5063513;28;20182;-80
2022/04/11 01:27:43;;;;;;;6.70;3.20;;;10.10;99.90;;;;;;5065603;28;20202;-84
2022/04/11 01:30:13;;;;;;;3.85;2.78;;;10.10;99.90;;;;;;5066825;28;20187;-83
2022/04/11 01:32:39;;;;;;;3.67;2.70;;;10.10;99.90;;;;;;5066959;28;20171;-80
2022/04/11 01:35:24;;;;;;;11.02;3.15;;;10.20;99.90;;;;;;5063264;28;20781;-79
2022/04/11 01:37:50;;;;;;;10.75;3.25;;;10.10;99.90;;;;;;5063606;28;20163;-80
2022/04/11 01:40:16;;;;;;;6.20;3.58;;;10.00;99.90;;;;;;5061178;28;20195;-79
2022/04/11 01:42:43;;;;;;;5.22;3.47;;;9.90;99.90;;;;;;5065828;28;20209;-84
2022/04/11 01:45:12;;;;;;;3.42;2.80;;;10.10;99.90;;;;;;5067640;28;20524;-79
2022/04/11 01:47:39;;;;;;;4.28;3.25;;;10.00;99.90;;;;;;5067348;28;20164;-81
2022/04/11 01:50:09;;;;;;;4.60;3.25;;;9.80;99.90;;;;;;5061548;28;20205;-86
2022/04/11 01:52:35;;;;;;;3.25;2.95;;;9.80;99.90;;;;;;5058672;28;20170;-87
2022/04/11 01:55:05;;;;;;;6.22;3.40;;;9.70;99.90;;;;;;5061343;28;20201;-78
2022/04/11 01:57:31;;;;;;;4.13;3.05;;;9.60;99.90;;;;;;5057203;28;20186;-83
2022/04/11 01:59:57;;;;;;;3.67;2.63;;;9.70;99.90;;;;;;5057019;28;20214;-87
2022/04/11 02:02:24;;;;;;;4.93;3.20;;;9.50;99.90;;;;;;5057968;28;20164;-82
2022/04/11 02:04:50;;;;;;;7.20;3.00;;;9.40;99.90;;;;;;5065878;28;20171;-83
2022/04/11 02:07:15;;;;;;;9.15;3.05;;;9.30;99.90;;;;;;5056997;28;20229;-86
2022/04/11 02:09:41;;;;;;;6.03;3.22;;;9.30;99.90;;;;;;5059041;28;20242;-86
2022/04/11 02:12:07;;;;;;;10.52;3.38;;;9.10;99.90;;;;;;5058393;28;20159;-86
2022/04/11 02:14:33;;;;;;;5.22;3.17;;;9.00;99.90;;;;;;5057067;28;20182;-79
2022/04/11 02:16:58;;;;;;;8.60;3.40;;;9.10;99.90;;;;;;5060746;28;20646;-85
2022/04/11 02:19:24;;;;;;;4.68;3.10;;;9.10;99.90;;;;;;5056513;28;20222;-80
2022/04/11 02:21:49;;;;;;;7.22;3.83;;;9.10;99.90;;;;;;5055929;28;20258;-81
2022/04/11 02:24:15;;;;;;;6.03;3.10;;;9.20;99.90;;;;;;5059626;28;20203;-78
2022/04/11 02:26:41;;;;;;;4.32;3.92;;;8.90;99.90;;;;;;5060797;28;20167;-78
2022/04/11 02:29:08;;;;;;;5.05;2.90;;;8.80;99.90;;;;;;5067142;28;20193;-77
2022/04/11 02:31:34;;;;;;;6.30;3.13;;;8.90;99.90;;;;;;5068044;28;20224;-76
2022/04/11 02:33:59;;;;;;;6.00;3.08;;;9.10;99.90;;;;;;5067004;28;20179;-78
2022/04/11 02:36:26;;;;;;;3.72;2.90;;;9.00;99.90;;;;;;5066937;28;20167;-79
2022/04/11 02:38:52;;;;;;;5.95;3.08;;;9.00;99.90;;;;;;5067145;28;20218;-85
2022/04/11 02:41:18;;;;;;;7.22;2.97;;;9.10;99.90;;;;;;5059470;28;20222;-78
2022/04/11 02:43:44;;;;;;;3.65;3.10;;;9.00;99.90;;;;;;5063911;28;20674;-80
2022/04/11 02:46:10;;;;;;;5.88;3.00;;;8.90;99.90;;;;;;5061323;28;20227;-83
2022/04/11 02:48:36;;;;;;;4.72;3.63;;;8.80;99.90;;;;;;5059627;28;20203;-77
2022/04/11 02:51:03;;;;;;;5.25;3.35;;;8.80;99.90;;;;;;5060609;28;20186;-78
2022/04/11 02:53:28;;;;;;;6.00;3.03;;;8.90;99.90;;;;;;5059178;28;20171;-80
2022/04/11 02:55:54;;;;;;;3.97;3.00;;;8.90;99.90;;;;;;5055789;28;20510;-81
2022/04/11 02:58:20;;;;;;;8.40;3.88;;;9.10;99.90;;;;;;5051751;28;20175;-84
2022/04/11 03:00:45;;;;;;;9.35;3.40;;;9.20;99.90;;;;;;5052751;28;20258;-81
2022/04/11 03:03:11;;;;;;;5.35;3.13;;;9.00;99.90;;;;;;5052822;28;20609;-81
2022/04/11 03:05:37;;;;;;;3.53;3.22;;;8.70;99.90;;;;;;5052824;28;20622;-84
2022/04/11 03:08:03;;;;;;;6.50;3.00;;;8.70;99.90;;;;;;5051841;28;20198;-78
2022/04/11 03:10:29;;;;;;;10.35;2.90;;;8.90;99.90;;;;;;5051557;28;20194;-78
2022/04/11 03:12:54;;;;;;;5.75;2.58;;;8.90;99.90;;;;;;5052707;28;20170;-77
2022/04/11 03:15:20;;;;;;;6.03;2.88;;;8.90;99.90;;;;;;5051531;28;20167;-78
2022/04/11 03:17:46;;;;;;;3.55;3.00;;;9.00;99.90;;;;;;5051862;28;20170;-79
2022/04/11 03:20:12;;;;;;;3.88;2.63;;;8.80;99.90;;;;;;5052332;28;20732;-79
2022/04/11 03:22:37;;;;;;;8.05;3.25;;;8.70;99.90;;;;;;5052555;28;20274;-80
2022/04/11 03:25:04;;;;;;;3.88;2.70;;;8.60;99.90;;;;;;5054462;28;20538;-81
2022/04/11 03:27:30;;;;;;;5.70;2.78;;;8.60;99.90;;;;;;5056657;28;20646;-84
2022/04/11 03:29:55;;;;;;;2.90;2.60;;;8.60;99.90;;;;;;5056584;28;20187;-81
2022/04/11 03:32:21;;;;;;;15.00;3.88;;;8.60;99.90;;;;;;5056689;28;20166;-79
2022/04/11 03:34:47;;;;;;;6.97;5.38;;;8.70;99.90;;;;;;5057765;28;20167;-86
2022/04/11 03:37:12;;;;;;;9.73;4.53;;;8.50;99.90;;;;;;5056774;28;20167;-84
2022/04/11 03:39:38;;;;;;;3.70;3.00;;;8.50;99.90;;;;;;5055870;28;20674;-80
2022/04/11 03:42:04;;;;;;;7.45;3.33;;;8.40;99.90;;;;;;5054994;28;20167;-83
2022/04/11 03:44:29;;;;;;;3.70;3.33;;;8.40;99.90;;;;;;5056447;28;20221;-85
2022/04/11 03:46:55;;;;;;;6.13;3.50;;;8.40;99.90;;;;;;5056482;28;20177;-82
2022/04/11 03:49:21;;;;;;;6.50;3.22;;;8.30;99.90;;;;;;5056054;28;20226;-81
2022/04/11 03:51:46;;;;;;;6.88;3.10;;;8.00;99.90;;;;;;5056401;28;20174;-79
2022/04/11 03:54:12;;;;;;;5.28;3.17;;;7.90;99.90;;;;;;5055805;28;20214;-78
2022/04/11 03:56:37;;;;;;;6.30;3.40;;;7.90;99.90;;;;;;5055894;28;20250;-80
2022/04/11 03:59:03;;;;;;;6.55;3.88;;;8.10;99.90;;;;;;5055698;28;20183;-82
2022/04/11 04:01:29;;;;;;;6.18;3.95;;;8.20;99.90;;;;;;5056390;28;20217;-79
2022/04/11 04:03:54;;;;;;;3.53;3.22;;;8.20;99.90;;;;;;5054484;28;20302;-80
2022/04/11 04:06:20;;;;;;;5.13;3.30;;;8.00;99.90;;;;;;5054968;28;20297;-81
2022/04/11 04:08:45;;;;;;;4.47;4.07;;;7.90;99.90;;;;;;5056212;28;20167;-81
2022/04/11 04:11:11;;;;;;;6.63;3.70;;;7.80;99.90;;;;;;5056308;28;20203;-81
2022/04/11 04:13:37;;;;;;;5.13;3.60;;;7.60;99.90;;;;;;5056174;28;20539;-80
2022/04/11 04:16:03;;;;;;;6.05;4.07;;;7.70;99.90;;;;;;5056103;28;20250;-82
2022/04/11 04:18:29;;;;;;;8.45;3.42;;;7.60;99.90;;;;;;5056094;28;20167;-82
2022/04/11 04:20:54;;;;;;;8.15;4.65;;;7.60;99.90;;;;;;5055697;28;20183;-84
2022/04/11 04:23:20;;;;;;;6.72;3.92;;;7.80;99.90;;;;;;5055924;28;20206;-83
2022/04/11 04:25:46;;;;;;;7.38;3.78;;;7.90;99.90;;;;;;5055900;28;20195;-81
2022/04/11 04:28:13;;;;;;;6.32;4.22;;;7.70;99.90;;;;;;5056163;28;20171;-83
2022/04/11 04:30:39;;;;;;;5.05;4.22;;;7.60;99.90;;;;;;5056120;28;20187;-84
2022/04/11 04:33:05;;;;;;;5.82;3.55;;;7.50;99.90;;;;;;5056378;28;20170;-82
2022/04/11 04:35:30;;;;;;;8.20;4.28;;;7.60;99.90;;;;;;5055676;28;20171;-84
2022/04/11 04:37:56;;;;;;;11.05;3.67;;;7.60;99.90;;;;;;5056234;28;20175;-86
2022/04/11 04:40:22;;;;;;;5.82;4.25;;;7.60;99.90;;;;;;5056328;28;20191;-86
2022/04/11 04:42:47;;;;;;;8.70;3.65;;;7.40;99.90;;;;;;5056314;28;20190;-84
2022/04/11 04:45:13;;;;;;;6.53;3.83;;;7.40;99.90;;;;;;5056105;28;20175;-81
2022/04/11 04:47:39;;;;;;;6.32;3.63;;;7.60;99.90;;;;;;5056139;28;20498;-85
2022/04/11 04:50:05;;;;;;;7.55;3.55;;;7.60;99.90;;;;;;5063417;28;20603;-79
2022/04/11 04:52:31;;;;;;;12.05;4.38;;;7.80;99.90;;;;;;5063615;28;20250;-81
2022/04/11 04:54:56;;;;;;;17.40;3.75;;;7.80;99.90;;;;;;5059961;28;20190;-80
2022/04/11 04:57:22;;;;;;;9.30;4.32;;;7.60;99.90;;;;;;5057161;28;20197;-79
2022/04/11 04:59:48;;;;;;;7.57;3.85;;;7.60;99.90;;;;;;5055975;28;20190;-78
2022/04/11 05:02:14;;;;;;;7.63;3.67;;;7.70;99.90;;;;;;5057572;28;20186;-78
2022/04/11 05:04:39;;;;;;;10.00;3.53;;;7.50;99.90;;;;;;5057682;28;20219;-78
2022/04/11 05:07:05;;;;;;;9.65;4.20;;;7.50;99.90;;;;;;5059160;28;20175;-79
2022/04/11 05:09:30;;;;;;;7.35;4.35;;;7.60;99.90;;;;;;5059004;28;20210;-82
2022/04/11 05:11:56;;;;;;;6.40;4.13;;;7.70;99.90;;;;;;5058361;28;20607;-80
2022/04/11 05:14:21;;;;;;;12.63;4.35;;;7.60;99.90;;;;;;5055286;28;20658;-85
2022/04/11 05:16:47;;;;;;;6.78;3.80;;;7.70;99.90;;;;;;5053884;28;20241;-79
2022/04/11 05:19:13;;;;;;;8.63;4.00;;;7.80;99.90;;;;;;5054653;28;20536;-81
2022/04/11 05:21:38;;;;;;;6.22;4.10;;;7.90;99.90;;;;;;5054929;28;20170;-87
2022/04/11 05:24:04;;;;;;;6.13;3.90;;;8.00;99.90;;;;;;5054629;28;20350;-87
2022/04/11 05:26:30;;;;;;;12.90;5.05;;;8.00;99.90;;;;;;5054706;28;20156;-80
2022/04/11 05:28:56;;;;;;;13.52;3.78;;;8.00;99.90;;;;;;5053713;28;20630;-87
2022/04/11 05:31:21;;;;;;;13.23;3.45;;;8.20;99.90;;;;;;5055114;28;20516;-81
2022/04/11 05:33:47;;;;;;;8.05;3.42;;;8.20;99.90;;;;;;5054273;28;20635;-80
2022/04/11 05:36:14;;;;;;;8.48;2.63;;;8.10;99.90;;;;;;5054104;28;20266;-78
2022/04/11 05:38:40;;;;;;;11.63;3.53;;;7.90;99.90;;;;;;5052707;28;20179;-85
2022/04/11 05:41:05;;;;;;;4.30;2.70;;;7.80;99.90;;;;;;5053776;28;20163;-80
2022/04/11 05:43:31;;;;;;;6.80;2.80;;;7.70;99.90;;;;;;5053956;28;20308;-78
2022/04/11 05:45:57;;;;;;;4.85;3.28;;;7.70;99.90;;;;;;5054314;28;20209;-80
2022/04/11 05:48:22;;;;;;;3.88;3.05;;;7.70;99.90;;;;;;5052933;28;20163;-79
2022/04/11 05:50:48;;;;;;;11.48;2.78;;;7.70;99.90;;;;;;5053431;28;20191;-80
2022/04/11 05:53:13;;;;;;;8.65;2.92;;;7.70;99.90;;;;;;5053835;28;20199;-81
2022/04/11 05:55:39;;;;;;;5.30;2.72;;;7.90;99.90;;;;;;5053523;28;20250;-82
2022/04/11 05:58:05;;;;;;;13.35;3.80;;;8.10;99.90;;;;;;5053364;28;20251;-84
2022/04/11 06:00:30;;;;;;;3.45;2.45;;;8.40;99.90;;;;;;5053466;28;20191;-86
2022/04/11 06:02:57;;;;;;;10.00;2.85;;;8.70;99.90;;;;;;5054251;28;20195;-87
2022/04/11 06:05:22;;;;;;;12.02;2.67;;;8.70;99.90;;;;;;5054400;28;20249;-86
2022/04/11 06:07:48;;;;;;;13.85;3.47;;;8.70;99.90;;;;;;5054122;28;20241;-83
2022/04/11 06:10:13;;;;;;;3.88;2.40;;;8.60;99.90;;;;;;5054695;28;20201;-86
2022/04/11 06:12:39;;;;;;;8.32;2.60;;;8.70;99.90;;;;;;5053346;28;20169;-80
2022/04/11 06:15:06;;;;;;;9.85;3.25;;;8.60;99.90;;;;;;5051460;28;20174;-80
2022/04/11 06:17:32;;;;;;;6.03;3.10;;;8.50;99.90;;;;;;5053459;28;20655;-81
2022/04/11 06:19:59;;;;;;;8.25;3.50;;;8.60;99.90;;;;;;5067957;28;20213;-82
2022/04/11 06:22:25;;;;;;;7.95;2.90;;;8.40;99.90;;;;;;5072408;28;20166;-81
2022/04/11 06:24:59;;;;;;;3.70;2.47;;;8.60;99.90;;;;;;5072940;28;20185;-84
2022/04/11 06:27:24;;;;;;;4.35;2.08;;;8.90;99.90;;;;;;5068874;28;20673;-82
2022/04/11 06:29:56;;;;;;;4.13;2.53;;;8.90;99.90;;;;;;5052035;28;20198;-87
2022/04/11 06:32:29;;;;;;;7.63;2.58;;;9.00;99.90;;;;;;5069734;28;20276;-85
2022/04/11 06:34:56;;;;;;;4.50;2.55;;;9.20;99.90;;;;;;5073539;28;20253;-87
2022/04/11 06:37:23;;;;;;;3.30;2.17;;;9.40;99.90;;;;;;5071720;28;20178;-88
2022/04/11 06:39:48;;;;;;;4.35;1.83;;;9.60;99.90;;;;;;5073119;28;20190;-88
2022/04/11 06:42:14;;;;;;;4.45;2.20;;;9.40;99.90;;;;;;5072482;28;20220;-87
2022/04/11 06:44:39;;;;;;;4.97;2.40;;;9.40;99.90;;;;;;5072243;28;20214;-85
2022/04/11 06:47:06;;;;;;;4.97;2.33;;;9.40;99.90;;;;;;5072520;28;20182;-86
2022/04/11 06:49:32;;;;;;;7.70;2.15;;;9.50;99.90;;;;;;5072711;28;20190;-82
2022/04/11 06:51:57;;;;;;;6.40;2.03;;;9.30;99.90;;;;;;5072598;28;20170;-81
2022/04/11 06:54:23;;;;;;;19.88;2.63;;;9.40;99.90;;;;;;5070312;28;20197;-80
2022/04/11 06:56:48;;;;;;;4.60;2.22;;;9.70;99.90;;;;;;5062043;28;20179;-81
2022/04/11 06:59:17;;;;;;;3.47;2.00;;;9.90;99.90;;;;;;5066898;28;20186;-80
2022/04/11 07:01:42;;;;;;;2.17;1.98;;;9.90;99.90;;;;;;5072278;28;20220;-82
2022/04/11 07:04:08;;;;;;;3.50;1.70;;;9.90;99.90;;;;;;5070024;28;20206;-81
2022/04/11 07:06:34;;;;;;;3.25;2.10;;;9.90;99.90;;;;;;5071109;28;20167;-77
2022/04/11 07:09:00;;;;;;;5.93;2.50;;;10.00;99.90;;;;;;5070444;28;20282;-81
2022/04/11 07:11:25;;;;;;;8.57;2.30;;;10.20;99.90;;;;;;5070612;28;20807;-81
2022/04/11 07:13:51;;;;;;;4.85;1.95;;;10.30;99.90;;;;;;5071627;28;20166;-79
2022/04/11 07:16:16;;;;;;;2.25;1.67;;;10.40;99.90;;;;;;5070153;28;20171;-80
2022/04/11 07:18:42;;;;;;;15.35;2.08;;;10.40;99.90;;;;;;5071482;28;20241;-84
2022/04/11 07:21:08;;;;;;;8.73;2.10;;;10.60;99.90;;;;;;5072713;28;20162;-80
2022/04/11 07:23:33;;;;;;;3.97;2.35;;;10.70;99.90;;;;;;5072103;28;20557;-81
2022/04/11 07:25:59;;;;;;;1.75;1.30;;;10.70;99.90;;;;;;5070849;28;20692;-81
2022/04/11 07:28:25;;;;;;;6.82;2.00;;;10.60;99.90;;;;;;5073678;28;20174;-80
2022/04/11 07:30:51;;;;;;;3.10;1.48;;;10.60;99.90;;;;;;5074149;28;20183;-81
2022/04/11 07:33:16;;;;;;;7.05;2.40;;;10.60;99.90;;;;;;5071154;28;20162;-81
2022/04/11 07:35:42;;;;;;;3.22;1.80;;;10.70;99.90;;;;;;5071688;28;20208;-81
2022/04/11 07:38:07;;;;;;;2.00;1.80;;;10.70;99.90;;;;;;5071529;28;20173;-80
2022/04/11 07:40:33;;;;;;;5.38;1.95;;;10.80;99.90;;;;;;5071727;28;20189;-80
2022/04/11 07:42:58;;;;;;;4.30;1.92;;;10.80;99.90;;;;;;5072530;28;20202;-80
2022/04/11 07:45:24;;;;;;;5.70;1.80;;;10.80;99.90;;;;;;5072493;28;20159;-79
2022/04/11 07:47:50;;;;;;;4.93;1.90;;;11.00;99.90;;;;;;5072404;28;20201;-79
2022/04/11 07:50:15;;;;;;;4.60;2.30;;;11.20;99.90;;;;;;5071787;28;20194;-79
2022/04/11 07:52:43;;;;;;;2.72;2.15;;;11.20;99.90;;;;;;5072272;28;20167;-80
2022/04/11 07:55:10;;;;;;;3.42;2.05;;;11.30;99.90;;;;;;5070741;28;20198;-79
2022/04/11 07:57:36;;;;;;;6.47;1.80;;;11.40;99.90;;;;;;5072004;28;20299;-79
2022/04/11 08:00:03;;;;;;;7.30;2.13;;;11.60;99.90;;;;;;5072219;28;20204;-79
2022/04/11 08:02:29;;;;;;;3.08;1.70;;;11.60;99.90;;;;;;5069708;28;20646;-79
2022/04/11 08:04:54;;;;;;;3.47;1.83;;;11.70;99.90;;;;;;5071657;28;20171;-79
2022/04/11 08:07:21;;;;;;;6.65;1.77;;;11.60;99.90;;;;;;5071606;28;20552;-79
2022/04/11 08:09:48;;;;;;;1.95;1.75;;;11.80;99.90;;;;;;5070400;28;20264;-79
2022/04/11 08:12:16;;;;;;;7.13;2.20;;;11.90;99.90;;;;;;5075042;28;20169;-79
2022/04/11 08:14:42;;;;;;;2.00;1.80;;;11.90;99.90;;;;;;5075233;28;20167;-79
2022/04/11 08:17:08;;;;;;;7.20;1.85;;;12.00;99.90;;;;;;5075266;28;20170;-79
2022/04/11 08:19:33;;;;;;;5.25;1.83;;;11.90;99.90;;;;;;5073678;28;20230;-80
2022/04/11 08:21:59;;;;;;;6.95;1.45;;;11.90;99.90;;;;;;5075639;28;20158;-79
2022/04/11 08:24:25;;;;;;;6.70;2.67;;;12.10;99.90;;;;;;5073681;28;20282;-79
2022/04/11 08:26:51;;;;;;;10.40;2.50;;;12.10;99.90;;;;;;5074012;28;20232;-80
2022/04/11 08:29:20;;;;;;;11.00;2.42;;;12.20;99.90;;;;;;5073474;28;20186;-80
2022/04/11 08:31:45;;;;;;;5.82;2.10;;;12.30;99.90;;;;;;5074693;28;20650;-79
2022/04/11 08:34:11;;;;;;;2.53;2.10;;;12.50;99.90;;;;;;5075029;28;20194;-79
2022/04/11 08:36:37;;;;;;;6.05;1.60;;;12.60;99.90;;;;;;5073716;28;20163;-79
2022/04/11 08:39:03;;;;;;;10.30;2.47;;;12.70;99.90;;;;;;5073208;28;20205;-79
2022/04/11 08:41:36;;;;;;;3.05;1.58;;;12.80;99.90;;;;;;5073774;28;20167;-79
2022/04/11 08:44:07;;;;;;;3.25;1.98;;;12.80;99.90;;;;;;5073389;28;20232;-82
2022/04/11 08:46:34;;;;;;;6.82;1.70;;;12.90;99.90;;;;;;5074636;28;20676;-81
2022/04/11 08:49:04;;;;;;;3.38;1.77;;;13.10;99.90;;;;;;5073774;28;20206;-83
2022/04/11 08:51:31;;;;;;;5.50;2.35;;;13.30;99.90;;;;;;5074218;28;20178;-80
2022/04/11 08:54:02;;;;;;;5.22;1.27;;;13.50;99.90;;;;;;5074670;28;20227;-84
2022/04/11 08:56:28;;;;;;;6.78;1.70;;;13.50;99.90;;;;;;5074789;28;20190;-82
2022/04/11 08:58:55;;;;;;;16.60;2.17;;;13.50;99.90;;;;;;5074242;28;20162;-83
2022/04/11 09:01:21;;;;;;;4.38;1.80;;;13.70;99.90;;;;;;5074474;28;20171;-81
2022/04/11 09:03:47;;;;;;;5.88;1.80;;;13.70;99.90;;;;;;5074450;28;20202;-82
2022/04/11 09:06:15;;;;;;;9.20;1.52;;;13.90;99.90;;;;;;5073065;28;20173;-83
2022/04/11 09:08:42;;;;;;;9.65;2.13;;;13.90;99.90;;;;;;5073896;28;20185;-83
2022/04/11 09:11:09;;;;;;;3.17;1.63;;;13.80;99.90;;;;;;5074367;28;20166;-82
2022/04/11 09:13:50;;;;;;;3.60;1.80;;;13.80;99.90;;;;;;5074407;28;20163;-77
2022/04/11 09:16:16;;;;;;;2.63;1.48;;;14.00;99.90;;;;;;5074846;28;20170;-82
2022/04/11 09:18:49;;;;;;;5.03;1.50;;;14.10;99.90;;;;;;5074566;28;20174;-81
2022/04/11 09:21:16;;;;;;;2.20;1.50;;;14.20;99.90;;;;;;5073613;28;20196;-80
2022/04/11 09:23:42;;;;;;;8.43;1.65;;;14.30;99.90;;;;;;5074078;28;20206;-82
2022/04/11 09:26:24;;;;;;;2.30;1.67;;;14.10;99.90;;;;;;5073972;28;20162;-84
2022/04/11 09:29:04;;;;;;;2.08;1.40;;;14.10;99.90;;;;;;5072821;28;20622;-81
2022/04/11 09:31:30;;;;;;;6.43;1.58;;;14.00;99.90;;;;;;5067656;28;20630;-80
2022/04/11 09:33:57;;;;;;;2.05;1.55;;;14.10;99.90;;;;;;5072102;28;20171;-83
2022/04/11 09:36:23;;;;;;;2.30;1.50;;;14.30;99.90;;;;;;5071295;28;20492;-84
2022/04/11 09:39:00;;;;;;;2.83;1.50;;;14.40;99.90;;;;;;5072759;28;20530;-81
2022/04/11 09:41:34;;;;;;;6.60;1.50;;;14.20;99.90;;;;;;5071358;28;20898;-81
2022/04/11 09:44:20;;;;;;;6.93;1.50;;;14.40;99.90;;;;;;5073126;28;20251;-83
2022/04/11 09:46:45;;;;;;;7.10;2.10;;;14.60;99.90;;;;;;5073351;28;20186;-82
2022/04/11 09:49:12;;;;;;;20.95;2.17;;;14.80;99.80;;;;;;5071603;28;20271;-84
2022/04/11 09:51:57;;;;;;;4.28;1.55;;;14.90;99.90;;;;;;5072163;28;20223;-80
2022/04/11 09:54:26;;;;;;;6.38;1.75;;;15.10;99.90;;;;;;5079186;28;20177;-84
2022/04/11 09:56:53;;;;;;;10.82;1.45;;;15.20;99.10;;;;;;5073946;28;20170;-79
2022/04/11 09:59:22;;;;;;;8.40;1.65;;;15.20;99.00;;;;;;5073089;28;20186;-80
2022/04/11 10:01:50;;;;;;;11.80;1.55;;;15.20;99.20;;;;;;5072633;28;20737;-82
2022/04/11 10:04:17;;;;;;;4.63;1.38;;;15.20;98.60;;;;;;5071309;28;20217;-79
2022/04/11 10:06:43;;;;;;;2.05;1.33;;;15.20;98.30;;;;;;5077448;28;20171;-82
2022/04/11 10:09:10;;;;;;;9.93;1.60;;;15.30;98.50;;;;;;5083121;28;20592;-87
2022/04/11 10:11:35;;;;;;;2.65;1.40;;;15.40;98.40;;;;;;5076352;28;20167;-83
2022/04/11 10:14:02;;;;;;;1.85;1.38;;;15.50;98.00;;;;;;5073698;28;20174;-83
2022/04/11 10:16:28;;;;;;;3.30;1.30;;;15.60;98.90;;;;;;5073005;28;20519;-85
2022/04/11 10:19:04;;;;;;;7.47;1.70;;;15.30;99.10;;;;;;5073107;28;20166;-83
2022/04/11 10:21:30;;;;;;;3.65;1.65;;;14.90;99.50;;;;;;5072317;28;20169;-82
2022/04/11 10:24:05;;;;;;;4.25;2.58;;;14.90;99.70;;;;;;5072827;28;20263;-84
2022/04/11 10:26:48;;;;;;;3.38;1.73;;;14.80;99.90;;;;;;5072819;28;20681;-79
2022/04/11 10:29:40;;;;;;;1.98;1.60;;;14.90;99.90;;;;;;5071979;28;20190;-79
2022/04/11 10:32:11;;;;;;;3.47;1.85;;;14.90;99.90;;;;;;5072506;28;20193;-77
2022/04/11 10:34:52;;;;;;;6.45;1.98;;;14.90;99.90;;;;;;5072428;28;20171;-80
2022/04/11 10:37:23;;;;;;;1.50;1.40;;;15.10;99.90;;;;;;5071209;28;20312;-81
2022/04/11 10:39:50;;;;;;;3.90;2.15;;;15.30;99.90;;;;;;5071302;28;20214;-86
2022/04/11 10:42:20;;;;;;;2.47;2.00;;;15.20;99.20;;;;;;5073061;28;20521;-82
2022/04/11 10:44:45;;;;;;;6.93;1.60;;;15.20;99.10;;;;;;5072839;28;20650;-85
2022/04/11 10:47:15;;;;;;;5.93;2.40;;;15.30;99.00;;;;;;5073291;28;20177;-78
2022/04/11 10:49:49;;;;;;;5.53;1.88;;;15.20;99.60;;;;;;5073091;28;20537;-79
2022/04/11 10:52:33;;;;;;;2.88;1.70;;;15.20;99.90;;;;;;5072600;28;20592;-83
2022/04/11 10:55:15;;;;;;;3.40;1.55;;;15.00;99.90;;;;;;5072853;28;20163;-79
2022/04/11 10:57:57;;;;;;;5.97;2.22;;;14.90;99.90;;;;;;5072599;28;20169;-80
2022/04/11 11:00:25;;;;;;;4.25;1.92;;;15.00;99.90;;;;;;5071195;28;20202;-78
2022/04/11 11:02:55;;;;;;;2.63;1.40;;;15.10;99.60;;;;;;5072543;28;20174;-81
2022/04/11 11:05:36;;;;;;;7.18;1.70;;;15.30;99.40;;;;;;5072669;28;20177;-86
2022/04/11 11:10:41;;;;;;;9.30;2.10;;;15.30;98.30;;;;;;5071513;28;20190;-79
2022/04/11 11:13:32;;;;;;;1.98;1.63;;;15.30;98.90;;;;;;5072031;28;20163;-83
2022/04/11 11:16:01;;;;;;;2.53;1.40;;;15.50;98.10;;;;;;5072583;28;20207;-81
2022/04/11 11:21:14;;;;;;;2.13;1.42;;;15.70;98.40;;;;;;5071911;28;20269;-77
2022/04/11 11:23:39;;;;;;;3.45;1.60;;;15.80;97.90;;;;;;5072035;28;20266;-82
2022/04/11 11:26:10;;;;;;;5.75;1.73;;;15.90;97.50;;;;;;5067189;28;20160;-82
2022/04/11 11:28:37;;;;;;;10.75;2.00;;;15.70;97.20;;;;;;5071924;28;20671;-78
2022/04/11 11:31:04;;;;;;;3.03;1.52;;;15.60;97.10;;;;;;5071983;28;20725;-79
2022/04/11 11:33:30;;;;;;;5.85;1.80;;;15.70;97.30;;;;;;5071674;28;20591;-80
2022/04/11 11:35:56;;;;;;;7.97;1.77;;;15.70;97.20;;;;;;5071714;28;20173;-79
2022/04/11 11:38:23;;;;;;;5.65;1.40;;;15.60;97.30;;;;;;5068674;28;20522;-78
2022/04/11 11:41:03;;;;;;;1.48;1.35;;;15.80;96.70;;;;;;5054556;28;20183;-78
2022/04/11 11:43:30;;;;;;;6.72;1.92;;;16.00;96.60;;;;;;5054527;28;20210;-79
2022/04/11 11:46:03;;;;;;;6.53;1.92;;;16.00;97.40;;;;;;5053175;28;20163;-80
2022/04/11 11:48:33;;;;;;;5.40;1.63;;;16.10;98.10;;;;;;5054388;28;20295;-78
2022/04/11 11:51:01;;;;;;;5.25;1.98;;;15.80;98.00;;;;;;5055371;28;20272;-78
2022/04/11 11:53:51;;;;;;;1.88;1.70;;;15.90;97.70;;;;;;5056746;28;20264;-79
2022/04/11 11:56:16;;;;;;;4.50;1.80;;;15.70;98.00;;;;;;5057219;28;20182;-81
2022/04/11 11:58:42;;;;;;;5.13;1.88;;;15.80;97.60;;;;;;5054842;28;20175;-79
2022/04/11 12:01:14;;;;;;;13.50;1.73;;;15.90;97.50;;;;;;5072031;28;20262;-81
2022/04/11 12:06:31;;;;;;;2.95;1.90;;;16.00;97.30;;;;;;5076447;28;20209;-87
2022/04/11 12:09:03;;;;;;;4.45;2.45;;;16.00;97.80;;;;;;5073921;28;20240;-78
2022/04/11 12:11:30;;;;;;;6.45;1.80;;;16.20;97.70;;;;;;5073693;28;20174;-79
2022/04/11 12:14:08;;;;;;;3.35;1.80;;;16.40;97.30;;;;;;5073362;28;20173;-85
2022/04/11 12:16:53;;;;;;;13.15;2.03;;;16.50;97.20;;;;;;5074907;28;20174;-79
2022/04/11 12:19:19;;;;;;;3.03;1.60;;;16.60;97.10;;;;;;5073663;28;20221;-79
2022/04/11 12:21:45;;;;;;;1.98;1.77;;;16.40;97.20;;;;;;5074350;28;20680;-78
2022/04/11 12:24:11;;;;;;;2.58;1.90;;;16.30;97.80;;;;;;5074763;28;20554;-90
2022/04/11 12:26:39;;;;;;;5.75;2.35;;;16.30;97.30;;;;;;5077010;28;20162;-85
2022/04/11 12:29:16;;;;;;;3.13;1.75;;;16.40;97.00;;;;;;5059228;28;20201;-81
2022/04/11 12:31:58;;;;;;;5.05;2.30;;;16.40;97.10;;;;;;5074413;28;20174;-80
2022/04/11 12:34:43;;;;;;;4.03;1.70;;;16.30;97.10;;;;;;5076383;28;20240;-79
2022/04/11 12:37:11;;;;;;;5.68;1.80;;;16.40;97.30;;;;;;5077340;28;20158;-80
2022/04/11 12:39:54;;;;;;;3.83;1.90;;;16.30;97.00;;;;;;5077235;28;20281;-81
2022/04/11 12:42:21;;;;;;;5.15;1.50;;;16.40;96.50;;;;;;5072897;28;20208;-80
2022/04/11 12:44:47;;;;;;;2.38;1.80;;;16.40;96.60;;;;;;5076565;28;20206;-80
2022/04/11 12:47:13;;;;;;;3.25;1.95;;;16.50;96.20;;;;;;5073317;28;20167;-81
2022/04/11 12:49:47;;;;;;;6.90;1.85;;;16.50;95.20;;;;;;5074384;28;20194;-80
2022/04/11 12:52:17;;;;;;;6.72;2.08;;;16.50;96.30;;;;;;5078398;28;20517;-81
2022/04/11 12:54:48;;;;;;;3.58;1.58;;;16.70;96.20;;;;;;5080271;28;20166;-83
2022/04/11 12:57:25;;;;;;;4.40;1.77;;;16.80;95.50;;;;;;5078468;28;20177;-79
2022/04/11 12:59:52;;;;;;;7.05;2.00;;;16.70;95.60;;;;;;5085461;28;20724;-86
2022/04/11 13:02:22;;;;;;;4.07;1.60;;;16.80;95.50;;;;;;5085347;28;20191;-86